»·PEaware :: N66BT KSBA-KBUR

N66BT :: KSBA-KBUR

FLIGHT INFORMATION

Flight Status: Arrived
Operator: Privately registered:
United States
More flights under this callsign
Pilot: John C. (19276)
Aircraft: CESSNA T210 TURBO CENTURION
(T210)
More flights by this aircraft type
Origin: KSBA Santa Barbara Mun
United States
Destination: KBUR Bob Hope-Burbank
United States
More flights between these airports :: More routes between these airports
Route: +FIM
File this flight plan on PilotEdge
Remarks:
Altitude:
(Current/Filed)
7,500ft
Speed:
(Current/Filed)
140kts
Departed: 02-Sep-18 06:32 PM
Arrived: 02-Sep-18 07:11 PM
Distance/Time
Traveled:
75nm/0:39
Distance/Time
To Go:
Arrived

Flight Plot

Page will automatically refresh every two minutes.


Map Options




Map Legend


Flown Route
Filed Route
Departure Airport
Arrival Airport
Navaid (VOR, NDB)
Fix

Horizontal Profiles

Position Reports

Time Latitude Longitude Heading Altitude Ground
Speed
02-Sep-18 18:18 34.432569 -119.835087 71 17ft 0kts
02-Sep-18 18:19 34.432569 -119.835087 71 17ft 0kts
02-Sep-18 18:20 34.432569 -119.835087 71 17ft 0kts
02-Sep-18 18:21 34.432569 -119.835087 71 17ft 0kts
02-Sep-18 18:22 34.432569 -119.835087 71 17ft 0kts
02-Sep-18 18:23 34.432569 -119.835087 71 17ft 0kts
02-Sep-18 18:24 34.432569 -119.835087 71 17ft 0kts
02-Sep-18 18:25 34.432569 -119.835087 71 17ft 0kts
02-Sep-18 18:26 34.432569 -119.835087 71 17ft 0kts
02-Sep-18 18:27 34.432569 -119.835087 71 17ft 0kts
02-Sep-18 18:28 34.432569 -119.835087 71 17ft 0kts
02-Sep-18 18:29 34.431594 -119.835351 177 17ft 7kts
02-Sep-18 18:30 34.428698 -119.835260 169 17ft 0kts
02-Sep-18 18:31 34.428698 -119.835260 169 17ft 0kts
02-Sep-18 18:32 34.428697 -119.835260 169 17ft 0kts
02-Sep-18 18:33 34.427755 -119.842818 268 46ft 91kts
02-Sep-18 18:34 34.424925 -119.878955 262 961ft 115kts
02-Sep-18 18:35 34.430712 -119.910068 347 1966ft 105kts
02-Sep-18 18:36 34.439596 -119.880517 99 2743ft 120kts
02-Sep-18 18:37 34.435775 -119.838799 95 3444ft 125kts
02-Sep-18 18:38 34.432815 -119.797509 94 4230ft 123kts
02-Sep-18 18:39 34.429963 -119.756773 94 5017ft 122kts
02-Sep-18 18:40 34.427131 -119.716113 94 5806ft 122kts
02-Sep-18 18:41 34.424312 -119.675448 94 6595ft 122kts
02-Sep-18 18:42 34.421502 -119.634661 94 7388ft 122kts
02-Sep-18 18:43 34.418314 -119.588929 94 7509ft 159kts
02-Sep-18 18:45 34.414456 -119.535140 94 7507ft 164kts
02-Sep-18 18:46 34.410551 -119.480935 94 7505ft 161kts
02-Sep-18 18:47 34.406799 -119.428478 94 7506ft 157kts
02-Sep-18 18:48 34.403096 -119.376784 94 7506ft 156kts
02-Sep-18 18:49 34.399467 -119.326067 94 7507ft 155kts
02-Sep-18 18:50 34.395799 -119.274719 94 7507ft 155kts
02-Sep-18 18:51 34.392114 -119.222994 94 7507ft 155kts
02-Sep-18 18:52 34.388422 -119.171003 94 7507ft 155kts
02-Sep-18 18:53 34.384720 -119.118723 94 7507ft 155kts
02-Sep-18 18:54 34.381043 -119.066667 94 7507ft 155kts
02-Sep-18 18:55 34.377378 -119.014659 94 7507ft 155kts
02-Sep-18 18:56 34.373717 -118.962572 94 7507ft 155kts
02-Sep-18 18:57 34.370075 -118.910400 94 7507ft 155kts
02-Sep-18 18:58 34.361190 -118.859656 111 7507ft 155kts
02-Sep-18 18:59 34.345195 -118.811176 111 7507ft 155kts
02-Sep-18 19:00 34.329151 -118.762634 111 7507ft 155kts
02-Sep-18 19:01 34.313322 -118.716886 114 7266ft 144kts
02-Sep-18 19:02 34.298052 -118.672484 111 6685ft 143kts
02-Sep-18 19:03 34.283348 -118.628917 114 6186ft 137kts
02-Sep-18 19:04 34.265844 -118.592691 118 5796ft 134kts
02-Sep-18 19:05 34.251147 -118.558078 116 5272ft 130kts
02-Sep-18 19:06 34.236375 -118.524324 119 4512ft 128kts
02-Sep-18 19:07 34.220381 -118.494481 123 3857ft 125kts
02-Sep-18 19:08 34.205479 -118.467380 118 3490ft 101kts
02-Sep-18 19:09 34.198952 -118.437242 93 2860ft 127kts
02-Sep-18 19:10 34.198316 -118.410377 89 2335ft 76kts
02-Sep-18 19:11 34.198268 -118.388544 90 1500ft 80kts
02-Sep-18 19:12 34.197898 -118.367992 90 795ft 67kts
02-Sep-18 19:13 34.197068 -118.360274 170 781ft 0kts
02-Sep-18 19:14 34.196614 -118.357940 155 781ft 8kts
02-Sep-18 19:15 34.196125 -118.357715 81 781ft 0kts
02-Sep-18 19:16 34.196125 -118.357715 81 781ft 0kts
02-Sep-18 19:17 34.196125 -118.357715 81 781ft 0kts
02-Sep-18 19:18 34.196125 -118.357715 81 781ft 0kts
02-Sep-18 19:19 34.196125 -118.357715 81 781ft 0kts
02-Sep-18 19:20 34.196125 -118.357715 81 781ft 0kts
02-Sep-18 19:21 34.196125 -118.357715 81 781ft 0kts

Navigation Log

Ident Type
1. KSBA Airport
2. FIM Navaid
3. KBUR Airport